Time;durP1;ratioP1;P1;durP2;ratioP2;P2;SDS_P1;SDS_P2;PMS_P1;PMS_P2;Temp;Humidity;BMP_temperature;BMP_pressure;BME280_temperature;BME280_humidity;BME280_pressure;Samples;Min_cycle;Max_cycle;Signal;HPM_P1;HPM_P2
2022/07/29 00:00:23;;;;;;;13.13;4.18;;;;;;;17.21;100.00;101562.09;5242141;28;20058;-78
2022/07/29 00:02:54;;;;;;;3.60;2.90;;;;;;;17.40;100.00;101589.53;5242219;28;20021;-79
2022/07/29 00:05:24;;;;;;;10.43;3.90;;;;;;;17.18;100.00;101564.56;5241371;28;20089;-82
2022/07/29 00:07:55;;;;;;;3.75;3.55;;;;;;;17.35;100.00;101586.00;5243494;28;20051;-83
2022/07/29 00:10:25;;;;;;;2.53;2.42;;;;;;;17.14;100.00;101560.78;5242251;28;20025;-80
2022/07/29 00:12:56;;;;;;;4.55;4.10;;;;;;;17.28;100.00;101577.34;5242946;28;20088;-81
2022/07/29 00:15:26;;;;;;;2.92;2.83;;;;;;;17.13;100.00;101559.97;5241947;28;20025;-79
2022/07/29 00:17:57;;;;;;;5.93;4.30;;;;;;;17.12;100.00;101554.78;5242369;28;20561;-81
2022/07/29 00:20:27;;;;;;;3.75;3.25;;;;;;;17.21;100.00;101585.84;5242523;28;20437;-80
2022/07/29 00:22:58;;;;;;;3.85;2.83;;;;;;;16.54;100.00;101475.44;5242562;28;20108;-82
2022/07/29 00:25:28;;;;;;;3.15;2.20;;;;;;;17.20;100.00;101573.31;5242650;28;20391;-79
2022/07/29 00:27:59;;;;;;;3.72;3.22;;;;;;;17.00;100.00;101530.59;5243562;28;20039;-79
2022/07/29 00:30:29;;;;;;;4.07;2.97;;;;;;;17.17;100.00;101557.47;5243116;28;20025;-82
2022/07/29 00:32:59;;;;;;;2.50;2.40;;;;;;;17.10;100.00;101548.78;5241877;28;20032;-82
2022/07/29 00:35:45;;;;;;;2.63;2.53;;;;;;;17.17;100.00;101558.31;5240946;28;20059;-80
2022/07/29 00:38:19;;;;;;;3.20;2.95;;;;;;;16.94;100.00;101517.25;5241437;28;20058;-80
2022/07/29 00:40:50;;;;;;;3.65;3.45;;;;;;;17.10;100.00;101546.06;5240616;28;20021;-82
2022/07/29 00:43:21;;;;;;;3.45;3.35;;;;;;;16.79;100.00;101497.13;5240299;28;20024;-82
2022/07/29 00:45:51;;;;;;;4.05;3.85;;;;;;;16.82;100.00;101514.84;5241115;28;20044;-82
2022/07/29 00:48:22;;;;;;;4.82;2.92;;;;;;;16.95;100.00;101527.88;5243105;28;20052;-80
2022/07/29 00:50:52;;;;;;;3.88;3.60;;;;;;;16.72;100.00;101490.38;5241150;28;20055;-80
2022/07/29 00:53:24;;;;;;;3.10;2.80;;;;;;;16.96;100.00;101534.97;5232326;28;20547;-80
2022/07/29 00:55:55;;;;;;;2.30;2.20;;;;;;;16.96;100.00;101539.63;5233406;28;20067;-80
2022/07/29 00:58:26;;;;;;;3.40;3.10;;;;;;;16.96;100.00;101534.97;5231278;28;20364;-80
2022/07/29 01:00:57;;;;;;;3.30;3.15;;;;;;;16.96;100.00;101534.16;5230800;28;20043;-81
2022/07/29 01:03:28;;;;;;;2.53;2.42;;;;;;;16.94;100.00;101525.44;5231708;28;20021;-81
2022/07/29 01:05:59;;;;;;;3.95;3.63;;;;;;;16.73;100.00;101492.84;5232445;28;20024;-81
2022/07/29 01:08:32;;;;;;;3.10;2.97;;;;;;;16.90;100.00;101522.44;5233368;28;20051;-80
2022/07/29 01:11:02;;;;;;;4.70;3.15;;;;;;;16.91;100.00;101526.81;5233626;28;20021;-80
2022/07/29 01:13:33;;;;;;;3.00;2.90;;;;;;;16.78;100.00;101511.88;5232303;28;20478;-81
2022/07/29 01:16:19;;;;;;;6.35;4.00;;;;;;;16.83;100.00;101525.50;5232115;28;20036;-80
2022/07/29 01:18:55;;;;;;;4.03;3.70;;;;;;;16.62;100.00;101502.13;5230461;28;20181;-80
2022/07/29 01:21:49;;;;;;;4.53;3.58;;;;;;;16.67;100.00;101529.41;5232182;28;20032;-81
2022/07/29 01:24:42;;;;;;;2.92;2.83;;;;;;;16.69;100.00;101535.41;5228262;28;20098;-79
2022/07/29 01:27:28;;;;;;;2.53;2.53;;;;;;;16.65;100.00;101523.41;5219572;28;20090;-79
2022/07/29 01:30:01;;;;;;;2.90;2.70;;;;;;;16.62;100.00;101517.66;5227465;28;20028;-79
2022/07/29 01:32:35;;;;;;;3.30;3.10;;;;;;;16.59;100.00;101523.69;5227588;28;20093;-79
2022/07/29 01:35:20;;;;;;;2.88;2.78;;;;;;;16.55;100.00;101517.97;5228894;28;20028;-79
2022/07/29 01:37:57;;;;;;;3.03;2.80;;;;;;;16.31;100.00;101489.72;5227576;28;20039;-80
2022/07/29 01:40:42;;;;;;;4.20;3.83;;;;;;;16.45;100.00;101518.84;5228039;28;20025;-79
2022/07/29 01:43:18;;;;;;;5.22;4.15;;;;;;;16.44;100.00;101513.66;5231356;28;20029;-79
2022/07/29 01:45:57;;;;;;;2.58;2.47;;;;;;;16.17;100.00;101471.22;5231153;28;20025;-79
2022/07/29 01:48:33;;;;;;;2.97;2.87;;;;;;;16.42;100.00;101513.13;5232956;28;20025;-79
2022/07/29 01:51:16;;;;;;;3.83;3.63;;;;;;;16.16;100.00;101477.81;5232999;28;20306;-80
2022/07/29 01:54:01;;;;;;;4.80;3.08;;;;;;;16.40;100.00;101507.16;5232160;28;20108;-80
2022/07/29 01:56:34;;;;;;;2.97;2.80;;;;;;;16.37;100.00;101513.97;5233862;28;20032;-79
2022/07/29 01:59:08;;;;;;;2.65;2.55;;;;;;;16.26;100.00;101493.28;5233727;28;20032;-80
2022/07/29 02:01:41;;;;;;;4.88;3.40;;;;;;;16.33;100.00;101506.63;5234370;28;20050;-79
2022/07/29 02:04:14;;;;;;;3.30;3.20;;;;;;;16.29;100.00;101503.63;5232296;28;20028;-80
2022/07/29 02:06:48;;;;;;;4.85;4.50;;;;;;;16.30;100.00;101504.44;5234134;28;20032;-79
2022/07/29 02:09:20;;;;;;;3.97;3.45;;;;;;;16.24;100.00;101489.19;5233985;28;20046;-80
2022/07/29 02:11:55;;;;;;;2.90;2.58;;;;;;;16.20;100.00;101492.47;5233049;28;20078;-80
2022/07/29 02:14:28;;;;;;;5.97;3.78;;;;;;;16.16;100.00;101490.63;5232946;28;20483;-80
2022/07/29 02:17:01;;;;;;;3.60;3.30;;;;;;;15.98;100.00;101464.78;5233129;28;20028;-80
2022/07/29 02:19:33;;;;;;;3.38;3.28;;;;;;;16.11;100.00;101494.16;5232998;28;20021;-80
2022/07/29 02:22:06;;;;;;;4.80;4.40;;;;;;;16.00;100.00;101484.38;5234217;28;20028;-80
2022/07/29 02:24:39;;;;;;;3.30;3.15;;;;;;;15.85;100.00;101470.81;5232285;28;20292;-80
2022/07/29 02:27:11;;;;;;;3.10;2.90;;;;;;;16.01;100.00;101501.53;5232147;28;20021;-80
2022/07/29 02:29:44;;;;;;;8.45;3.55;;;;;;;15.82;100.00;101469.47;5233437;28;20083;-80
2022/07/29 02:32:17;;;;;;;5.03;3.13;;;;;;;15.85;100.00;101482.53;5233865;28;20143;-80
2022/07/29 02:34:48;;;;;;;3.80;3.20;;;;;;;15.98;100.00;101502.91;5232811;28;20483;-80
2022/07/29 02:37:20;;;;;;;5.65;3.10;;;;;;;15.96;100.00;101499.66;5232642;28;20029;-80
2022/07/29 02:39:53;;;;;;;4.75;3.17;;;;;;;15.97;100.00;101497.75;5231019;28;20024;-80
2022/07/29 02:42:27;;;;;;;3.17;3.08;;;;;;;15.98;100.00;101505.63;5229117;28;20056;-80
2022/07/29 02:44:58;;;;;;;3.92;3.58;;;;;;;15.76;100.00;101467.03;5230954;28;20311;-81
2022/07/29 02:47:39;;;;;;;3.08;2.88;;;;;;;15.89;100.00;101488.22;5231660;28;20067;-80
2022/07/29 02:50:20;;;;;;;3.55;3.35;;;;;;;15.82;100.00;101493.97;5231435;28;20382;-78
2022/07/29 02:52:57;;;;;;;3.40;3.25;;;;;;;15.81;100.00;101488.81;5229573;28;20509;-79
2022/07/29 02:55:34;;;;;;;5.05;3.45;;;;;;;15.73;100.00;101484.72;5229873;28;20032;-78
2022/07/29 02:58:28;;;;;;;10.30;5.00;;;;;;;15.70;100.00;101487.19;5230012;28;20063;-79
2022/07/29 03:01:03;;;;;;;3.80;3.58;;;;;;;15.63;100.00;101500.25;5228740;28;20060;-79
2022/07/29 03:03:37;;;;;;;10.45;3.33;;;;;;;15.58;100.00;101500.28;5229069;28;20023;-78
2022/07/29 03:06:09;;;;;;;3.35;3.15;;;;;;;15.50;100.00;101502.41;5228886;28;20050;-78
2022/07/29 03:08:44;;;;;;;3.85;3.65;;;;;;;15.45;100.00;101501.59;5228096;28;20517;-78
2022/07/29 03:11:16;;;;;;;3.80;3.63;;;;;;;15.26;100.00;101478.75;5230027;28;20039;-79
2022/07/29 03:13:47;;;;;;;3.67;3.47;;;;;;;15.28;100.00;101491.00;5229814;28;20017;-79
2022/07/29 03:16:19;;;;;;;3.40;3.13;;;;;;;15.26;100.00;101501.34;5230755;28;20171;-79
2022/07/29 03:18:50;;;;;;;4.75;3.25;;;;;;;15.20;100.00;101499.69;5232489;28;20048;-79
2022/07/29 03:21:21;;;;;;;3.70;3.40;;;;;;;15.02;100.00;101481.97;5234721;28;20052;-79
2022/07/29 03:23:51;;;;;;;4.00;3.70;;;;;;;15.10;100.00;101496.94;5234845;28;20280;-79
2022/07/29 03:26:22;;;;;;;4.53;4.10;;;;;;;14.93;100.00;101480.09;5234811;28;20057;-78
2022/07/29 03:28:52;;;;;;;5.55;4.07;;;;;;;15.01;100.00;101485.00;5234928;28;20112;-78
2022/07/29 03:31:23;;;;;;;5.30;4.40;;;;;;;14.87;100.00;101476.53;5235162;28;20394;-78
2022/07/29 03:33:53;;;;;;;10.43;4.22;;;;;;;14.94;100.00;101487.16;5229942;28;20107;-78
2022/07/29 03:36:24;;;;;;;3.92;3.45;;;;;;;14.88;100.00;101477.34;5230891;28;20517;-78
2022/07/29 03:38:56;;;;;;;3.75;3.55;;;;;;;14.80;100.00;101473.25;5230611;28;20284;-78
2022/07/29 03:41:26;;;;;;;8.10;4.65;;;;;;;14.82;100.00;101481.97;5231195;28;20021;-79
2022/07/29 03:43:59;;;;;;;5.03;3.83;;;;;;;14.82;100.00;101477.34;5233969;28;20033;-79
2022/07/29 03:46:31;;;;;;;4.25;4.05;;;;;;;14.81;100.00;101477.59;5231461;28;20055;-79
2022/07/29 03:49:04;;;;;;;4.70;4.25;;;;;;;14.65;100.00;101452.31;5231764;28;20025;-79
2022/07/29 03:51:35;;;;;;;7.57;4.03;;;;;;;14.75;100.00;101479.50;5230477;28;20079;-78
2022/07/29 03:54:07;;;;;;;4.88;4.47;;;;;;;14.61;100.00;101453.91;5228412;28;20028;-79
2022/07/29 03:56:40;;;;;;;11.50;4.65;;;;;;;14.67;100.00;101485.47;5228626;28;20021;-79
2022/07/29 03:59:12;;;;;;;4.72;4.25;;;;;;;14.42;100.00;101445.47;5230265;28;20040;-79
2022/07/29 04:01:44;;;;;;;6.68;4.18;;;;;;;14.61;100.00;101489.25;5229719;28;20021;-80
2022/07/29 04:04:14;;;;;;;3.53;3.22;;;;;;;14.56;100.00;101497.38;5230025;28;20024;-79
2022/07/29 04:06:46;;;;;;;3.72;3.58;;;;;;;14.35;100.00;101463.06;5227700;28;20017;-79
2022/07/29 04:09:16;;;;;;;5.57;5.05;;;;;;;14.41;100.00;101483.75;5227171;28;20032;-78
2022/07/29 04:11:47;;;;;;;4.20;3.97;;;;;;;14.50;100.00;101503.88;5227218;28;20020;-78
2022/07/29 04:14:18;;;;;;;3.60;3.50;;;;;;;14.54;100.00;101499.56;5227905;28;20017;-79
2022/07/29 04:16:48;;;;;;;8.80;5.55;;;;;;;14.49;100.00;101485.94;5228656;28;20025;-78
2022/07/29 04:19:19;;;;;;;4.97;4.72;;;;;;;14.61;100.00;101493.88;5227235;28;20029;-80
2022/07/29 04:21:49;;;;;;;4.95;4.63;;;;;;;14.76;100.00;101508.31;5226986;28;20112;-78
2022/07/29 04:24:19;;;;;;;4.35;4.05;;;;;;;14.82;100.00;101514.59;5226744;28;20029;-78
2022/07/29 04:26:50;;;;;;;9.38;4.50;;;;;;;14.81;100.00;101491.19;5227271;28;20112;-80
2022/07/29 04:29:20;;;;;;;8.75;4.30;;;;;;;14.79;100.00;101477.88;5229490;28;20028;-79
2022/07/29 04:31:51;;;;;;;3.92;3.72;;;;;;;14.98;100.00;101502.66;5230025;28;20032;-79
2022/07/29 04:34:21;;;;;;;4.25;4.05;;;;;;;15.04;100.00;101508.91;5228403;28;20101;-80
2022/07/29 04:36:52;;;;;;;4.47;4.22;;;;;;;15.14;100.00;101523.34;5229863;28;20096;-79
2022/07/29 04:39:22;;;;;;;5.07;4.57;;;;;;;15.17;100.00;101525.53;5229506;28;20079;-79
2022/07/29 04:41:52;;;;;;;4.65;4.20;;;;;;;15.23;100.00;101534.53;5229481;28;20429;-80
2022/07/29 04:44:23;;;;;;;4.07;3.88;;;;;;;15.26;100.00;101530.44;5229858;28;20406;-80
2022/07/29 04:46:53;;;;;;;3.97;3.78;;;;;;;15.21;100.00;101525.81;5226231;28;20036;-79
2022/07/29 04:49:24;;;;;;;5.72;4.05;;;;;;;15.33;100.00;101541.88;5228084;28;20028;-79
2022/07/29 04:51:55;;;;;;;4.53;4.22;;;;;;;15.38;100.00;101541.88;5229213;28;20029;-79
2022/07/29 04:54:25;;;;;;;5.30;5.00;;;;;;;15.41;100.00;101536.72;5229492;28;20480;-79
2022/07/29 04:56:55;;;;;;;5.20;4.85;;;;;;;15.48;100.00;101531.81;5229484;28;20391;-79
2022/07/29 04:59:26;;;;;;;3.80;3.60;;;;;;;15.51;100.00;101536.72;5245099;22;20380;-60
2022/07/29 05:01:57;;;;;;;4.15;3.95;;;;;;;15.54;100.00;101540.81;5220094;28;20017;-60
2022/07/29 05:04:27;;;;;;;4.95;4.65;;;;;;;15.60;100.00;101541.63;5221154;28;20028;-61
2022/07/29 05:06:58;;;;;;;5.07;4.78;;;;;;;15.54;100.00;101535.38;5221611;28;20391;-59
2022/07/29 05:09:28;;;;;;;4.75;4.32;;;;;;;15.64;100.00;101546.25;5221654;28;20421;-61
2022/07/29 05:11:58;;;;;;;4.07;3.72;;;;;;;15.62;100.00;101542.16;5221729;28;20166;-60
2022/07/29 05:14:29;;;;;;;4.25;4.05;;;;;;;15.56;100.00;101538.66;5220965;28;20024;-62
2022/07/29 05:16:59;;;;;;;4.75;4.45;;;;;;;15.57;100.00;101547.66;5225394;28;20109;-62
2022/07/29 05:19:30;;;;;;;5.38;3.50;;;;;;;15.46;100.00;101544.88;5225378;28;20087;-62
2022/07/29 05:22:00;;;;;;;4.22;4.03;;;;;;;14.96;100.00;101463.22;5225934;28;20047;-62
2022/07/29 05:24:30;;;;;;;6.47;5.30;;;;;;;15.42;100.00;101551.94;5225214;28;20032;-62
2022/07/29 05:27:01;;;;;;;5.85;4.70;;;;;;;15.39;100.00;101548.94;5225483;28;20412;-61
2022/07/29 05:29:31;;;;;;;7.03;3.63;;;;;;;15.33;100.00;101534.50;5225162;28;20515;-61
2022/07/29 05:32:02;;;;;;;5.28;4.95;;;;;;;15.36;100.00;101530.44;5224598;28;20037;-61
2022/07/29 05:34:33;;;;;;;4.15;3.92;;;;;;;15.31;100.00;101535.88;5224146;28;20366;-62
2022/07/29 05:37:03;;;;;;;5.40;4.88;;;;;;;15.30;100.00;101532.38;5224508;28;20048;-62
2022/07/29 05:39:34;;;;;;;5.60;5.05;;;;;;;15.48;100.00;101541.88;5224566;28;20604;-61
2022/07/29 05:42:08;;;;;;;4.15;3.92;;;;;;;15.36;100.00;101539.41;5224735;28;20020;-61
2022/07/29 05:44:39;;;;;;;5.80;5.40;;;;;;;15.57;100.00;101544.91;5223391;28;20066;-62
2022/07/29 05:47:10;;;;;;;4.40;4.00;;;;;;;15.66;100.00;101551.44;5224133;28;20077;-62
2022/07/29 05:49:40;;;;;;;5.32;4.78;;;;;;;15.73;100.00;101549.25;5224745;28;20449;-61
2022/07/29 05:52:10;;;;;;;4.63;4.15;;;;;;;15.81;100.00;101556.88;5224742;28;20020;-62
2022/07/29 05:54:41;;;;;;;5.05;4.72;;;;;;;15.85;100.00;101560.69;5223517;28;20028;-62
2022/07/29 05:57:19;;;;;;;5.13;4.93;;;;;;;15.87;100.00;101544.91;5223948;28;20043;-62
2022/07/29 05:59:50;;;;;;;15.18;6.07;;;;;;;15.99;100.00;101558.22;5222780;28;20033;-61
2022/07/29 06:02:21;;;;;;;4.13;3.85;;;;;;;16.02;100.00;101558.47;5224136;28;20020;-61
2022/07/29 06:04:51;;;;;;;6.13;4.88;;;;;;;16.14;100.00;101567.19;5224708;28;20028;-62
2022/07/29 06:07:22;;;;;;;12.95;4.93;;;;;;;16.23;100.00;101574.78;5224889;28;20440;-61
2022/07/29 06:09:52;;;;;;;6.93;4.80;;;;;;;16.24;100.00;101573.69;5223675;28;20028;-62
2022/07/29 06:12:23;;;;;;;5.00;4.57;;;;;;;16.27;100.00;101578.59;5224376;28;20017;-61
2022/07/29 06:14:53;;;;;;;5.97;4.18;;;;;;;16.30;100.00;101584.31;5223615;28;20029;-61
2022/07/29 06:17:23;;;;;;;4.45;4.13;;;;;;;16.31;100.00;101571.50;5224494;28;20036;-62
2022/07/29 06:19:54;;;;;;;5.03;4.72;;;;;;;16.42;100.00;101590.28;5224313;28;20059;-61
2022/07/29 06:22:24;;;;;;;5.80;5.43;;;;;;;16.51;100.00;101587.78;5224095;28;20029;-62
2022/07/29 06:24:55;;;;;;;5.07;4.88;;;;;;;16.59;100.00;101595.41;5221785;28;20016;-62
2022/07/29 06:27:25;;;;;;;5.15;4.82;;;;;;;16.68;100.00;101588.31;5220035;28;20445;-61
2022/07/29 06:29:56;;;;;;;4.57;4.18;;;;;;;16.31;100.00;101511.53;5222589;28;20033;-60
2022/07/29 06:32:26;;;;;;;11.45;5.07;;;;;;;16.90;100.00;101598.03;5224321;28;20021;-61
2022/07/29 06:34:57;;;;;;;4.93;4.40;;;;;;;17.00;100.00;101596.06;5222963;28;20420;-61
2022/07/29 06:37:27;;;;;;;5.80;5.28;;;;;;;17.12;100.00;101598.44;5224183;28;20024;-60
2022/07/29 06:42:46;;;;;;;5.67;5.37;;;;;;;17.47;100.00;101600.13;5222736;28;20076;-61
2022/07/29 06:45:17;;;;;;;4.45;3.70;;;;;;;17.76;100.00;101597.50;5221290;28;20120;-61
2022/07/29 06:47:48;;;;;;;5.15;4.85;;;;;;;18.14;100.00;101598.50;5223004;28;20033;-61
2022/07/29 06:50:18;;;;;;;4.88;4.47;;;;;;;18.54;100.00;101591.78;5222548;28;20020;-62
2022/07/29 06:52:49;;;;;;;5.97;4.88;;;;;;;18.94;100.00;101589.66;5223984;28;20048;-61
2022/07/29 06:55:19;;;;;;;5.15;4.85;;;;;;;19.32;100.00;101583.09;5223076;28;20028;-61
2022/07/29 06:57:50;;;;;;;5.03;4.63;;;;;;;19.54;100.00;101586.06;5222493;28;20464;-61
2022/07/29 07:00:20;;;;;;;4.35;4.05;;;;;;;19.79;100.00;101578.53;5222733;28;20480;-61
2022/07/29 07:02:50;;;;;;;4.68;4.43;;;;;;;19.94;100.00;101585.66;5222917;28;20036;-60
2022/07/29 07:05:21;;;;;;;5.55;4.10;;;;;;;20.03;100.00;101579.19;5222045;28;20013;-61
2022/07/29 07:07:51;;;;;;;4.13;3.92;;;;;;;20.13;100.00;101584.50;5222173;28;20028;-60
2022/07/29 07:10:22;;;;;;;4.35;4.15;;;;;;;20.21;100.00;101583.00;5222408;28;20021;-61
2022/07/29 07:12:52;;;;;;;4.63;4.43;;;;;;;20.28;100.00;101590.81;5222496;28;20102;-62
2022/07/29 07:15:23;;;;;;;4.53;4.20;;;;;;;20.30;100.00;101594.88;5220909;28;20028;-61
2022/07/29 07:17:53;;;;;;;3.90;3.65;;;;;;;20.39;100.00;101590.34;5222175;28;20074;-61
2022/07/29 07:20:24;;;;;;;3.38;3.17;;;;;;;20.55;100.00;101597.16;5220389;28;20040;-61
2022/07/29 07:22:55;;;;;;;4.15;3.95;;;;;;;20.71;100.00;101589.44;5222843;28;20013;-61
2022/07/29 07:25:25;;;;;;;3.95;3.75;;;;;;;20.77;100.00;101588.22;5222014;28;20452;-61
2022/07/29 07:27:56;;;;;;;4.50;4.20;;;;;;;20.88;100.00;101606.06;5220736;28;20103;-61
2022/07/29 07:30:27;;;;;;;4.53;4.22;;;;;;;20.94;100.00;101598.53;5222703;28;20473;-61
2022/07/29 07:32:57;;;;;;;6.07;5.00;;;;;;;21.12;100.00;101605.81;5222755;28;20418;-62
2022/07/29 07:35:28;;;;;;;4.45;4.25;;;;;;;20.86;100.00;101541.59;5222416;28;20036;-61
2022/07/29 07:37:58;;;;;;;4.55;4.25;;;;;;;21.39;100.00;101598.66;5222060;28;20020;-61
2022/07/29 07:40:29;;;;;;;5.15;4.63;;;;;;;21.47;100.00;101593.22;5218153;28;20033;-61
2022/07/29 07:42:59;;;;;;;6.05;4.20;;;;;;;21.55;100.00;101598.00;5222593;28;20021;-61
2022/07/29 07:45:32;;;;;;;9.18;4.72;;;;;;;21.72;100.00;101599.22;5222253;28;20021;-61
2022/07/29 07:48:03;;;;;;;11.13;7.40;;;;;;;21.92;100.00;101606.97;5222536;28;20302;-61
2022/07/29 07:50:34;;;;;;;76.70;39.75;;;;;;;21.97;100.00;101603.25;5222611;28;20434;-62
2022/07/29 07:53:04;;;;;;;11.73;7.18;;;;;;;22.16;100.00;101596.47;5221166;28;20036;-61
2022/07/29 07:55:40;;;;;;;5.38;4.97;;;;;;;22.14;100.00;101595.16;5222049;28;20435;-61
2022/07/29 07:58:10;;;;;;;12.10;4.63;;;;;;;22.17;100.00;101595.34;5222708;28;20021;-62
2022/07/29 08:00:41;;;;;;;28.17;12.63;;;;;;;22.33;100.00;101575.63;5221527;28;20039;-61
2022/07/29 08:03:13;;;;;;;4.57;3.97;;;;;;;22.49;100.00;101565.84;5223062;28;20067;-61
2022/07/29 08:05:44;;;;;;;5.18;4.68;;;;;;;22.68;100.00;101582.88;5222331;28;20071;-60
2022/07/29 08:08:14;;;;;;;5.72;4.60;;;;;;;22.68;100.00;101582.06;5222437;28;20064;-60
2022/07/29 08:10:55;;;;;;;4.63;4.28;;;;;;;22.72;100.00;101592.13;5220794;28;20044;-61
2022/07/29 08:13:30;;;;;;;4.32;3.92;;;;;;;22.69;100.00;101590.03;5222914;28;20028;-58
2022/07/29 08:16:01;;;;;;;3.47;3.28;;;;;;;22.82;100.00;101596.53;5223265;28;20055;-60
2022/07/29 08:18:31;;;;;;;3.65;3.35;;;;;;;22.97;100.00;101596.09;5221990;28;20370;-59
2022/07/29 08:21:02;;;;;;;3.63;3.38;;;;;;;23.01;100.00;101575.03;5221018;28;20186;-58
2022/07/29 08:23:39;;;;;;;18.42;4.93;;;;;;;23.22;100.00;101577.97;5221778;28;20017;-59
2022/07/29 08:26:12;;;;;;;2.97;2.70;;;;;;;23.65;100.00;101594.53;5221612;28;20386;-59
2022/07/29 08:28:45;;;;;;;4.10;3.90;;;;;;;23.95;100.00;101591.88;5221798;28;20420;-61
2022/07/29 08:31:16;;;;;;;4.10;3.72;;;;;;;23.95;100.00;101595.44;5221832;28;20492;-59
2022/07/29 08:33:46;;;;;;;13.27;5.85;;;;;;;24.02;100.00;101600.44;5203134;28;20056;-61
2022/07/29 08:36:17;;;;;;;5.40;4.03;;;;;;;24.11;100.00;101604.81;5222004;28;20040;-61
2022/07/29 08:38:49;;;;;;;5.22;4.72;;;;;;;24.23;100.00;101606.88;5221523;28;20057;-63
2022/07/29 08:41:19;;;;;;;4.63;4.40;;;;;;;24.01;100.00;101610.66;5223424;28;20037;-63
2022/07/29 08:43:50;;;;;;;4.68;4.22;;;;;;;23.77;100.00;101605.69;5223388;28;20029;-60
2022/07/29 08:46:22;;;;;;;5.38;4.78;;;;;;;23.64;100.00;101603.94;5221855;28;20029;-63
2022/07/29 08:48:55;;;;;;;6.22;5.40;;;;;;;23.67;100.00;101602.47;5222276;28;20548;-61
2022/07/29 08:51:26;;;;;;;4.50;4.10;;;;;;;23.53;100.00;101600.69;5224841;28;20108;-60
2022/07/29 08:53:57;;;;;;;5.68;4.85;;;;;;;23.51;100.00;101591.09;5225666;28;20021;-59
2022/07/29 08:56:28;;;;;;;4.38;3.92;;;;;;;23.66;100.00;101603.63;5225741;28;20029;-60
2022/07/29 08:59:03;;;;;;;4.85;3.83;;;;;;;23.33;100.00;101546.19;5225251;28;20534;-60
2022/07/29 09:01:36;;;;;;;3.60;3.30;;;;;;;23.64;100.00;101600.38;5225171;28;20025;-59
2022/07/29 09:04:11;;;;;;;8.40;5.05;;;;;;;23.50;100.00;101595.78;5225277;28;20025;-60
2022/07/29 09:06:47;;;;;;;5.35;3.38;;;;;;;23.59;100.00;101606.84;5225395;28;20205;-60
2022/07/29 09:09:18;;;;;;;5.43;4.93;;;;;;;23.66;100.00;101601.66;5223916;28;20033;-60
2022/07/29 09:11:48;;;;;;;6.28;5.10;;;;;;;23.55;100.00;101614.16;5225425;28;20028;-60
2022/07/29 09:14:19;;;;;;;9.02;4.35;;;;;;;23.69;100.00;101611.22;5225292;28;20388;-60
2022/07/29 09:16:54;;;;;;;4.00;3.70;;;;;;;23.88;100.00;101600.66;5225522;28;20407;-61
2022/07/29 09:19:34;;;;;;;4.22;4.03;;;;;;;24.10;100.00;101605.13;5226053;28;20029;-60
2022/07/29 09:22:06;;;;;;;4.65;4.35;;;;;;;24.22;100.00;101606.06;5226030;28;20017;-61
2022/07/29 09:24:44;;;;;;;4.13;3.85;;;;;;;24.10;100.00;101567.31;5225171;28;20025;-61
2022/07/29 09:27:18;;;;;;;5.07;4.80;;;;;;;24.51;100.00;101601.75;5226023;28;20024;-61
2022/07/29 09:30:15;;;;;;;5.60;4.88;;;;;;;24.45;100.00;101598.38;5225231;28;20020;-61
2022/07/29 09:33:01;;;;;;;4.30;3.90;;;;;;;24.42;100.00;101595.47;5225265;28;20037;-61
2022/07/29 09:35:31;;;;;;;3.65;3.35;;;;;;;24.56;100.00;101585.78;5224402;28;20036;-61
2022/07/29 09:38:14;;;;;;;3.58;3.33;;;;;;;24.46;100.00;101593.66;5225101;28;20476;-61
2022/07/29 09:40:56;;;;;;;5.05;4.05;;;;;;;24.59;100.00;101587.09;5225636;28;20068;-61
2022/07/29 09:43:26;;;;;;;3.13;2.92;;;;;;;24.89;99.82;101601.69;5224247;28;20021;-62
2022/07/29 09:46:10;;;;;;;4.25;3.92;;;;;;;24.95;98.00;101599.56;5223897;28;20033;-62
2022/07/29 09:48:40;;;;;;;4.03;3.10;;;;;;;24.95;96.50;101599.56;5225493;28;20408;-61
2022/07/29 09:51:20;;;;;;;5.93;4.53;;;;;;;24.96;96.78;101598.44;5225531;28;20021;-62
2022/07/29 09:53:51;;;;;;;3.65;3.45;;;;;;;25.03;96.30;101605.06;5225005;28;20469;-62
2022/07/29 09:56:41;;;;;;;4.50;4.30;;;;;;;24.86;93.85;101592.13;5225606;28;20029;-63
2022/07/29 09:59:12;;;;;;;3.60;3.30;;;;;;;24.86;93.06;101577.50;5226239;28;20043;-61
2022/07/29 10:01:42;;;;;;;4.22;3.95;;;;;;;24.98;93.70;101590.63;5225678;28;20016;-64
2022/07/29 10:04:13;;;;;;;4.07;3.08;;;;;;;25.17;94.03;101593.72;5225346;28;20016;-64
2022/07/29 10:06:56;;;;;;;3.33;3.13;;;;;;;25.26;91.91;101602.78;5225948;28;20035;-63
2022/07/29 10:09:27;;;;;;;3.92;3.63;;;;;;;25.13;90.87;101579.75;5225675;28;20049;-63
2022/07/29 10:12:08;;;;;;;7.70;3.58;;;;;;;25.19;91.41;101599.72;5225675;28;20044;-62
2022/07/29 10:14:40;;;;;;;3.38;3.08;;;;;;;25.18;92.55;101598.91;5225318;28;20358;-63
2022/07/29 10:17:10;;;;;;;3.33;3.15;;;;;;;25.52;93.94;101597.00;5225525;28;20033;-63
2022/07/29 10:19:42;;;;;;;3.88;3.58;;;;;;;25.98;92.62;101604.25;5225494;28;20021;-63
2022/07/29 10:22:12;;;;;;;3.15;2.95;;;;;;;26.03;88.79;101601.25;5223994;28;20024;-63
2022/07/29 10:24:43;;;;;;;2.78;2.58;;;;;;;26.15;90.21;101604.03;5224630;28;20432;-62
2022/07/29 10:27:14;;;;;;;3.17;2.97;;;;;;;26.36;86.98;101601.22;5223874;28;20021;-63
2022/07/29 10:29:44;;;;;;;3.65;3.45;;;;;;;26.35;86.24;101598.78;5223794;28;20032;-64
2022/07/29 10:32:33;;;;;;;3.30;3.05;;;;;;;26.41;85.93;101606.53;5225349;28;20029;-64
2022/07/29 10:35:13;;;;;;;5.95;3.88;;;;;;;26.23;83.79;101600.38;5224115;28;20027;-63
2022/07/29 10:38:10;;;;;;;3.65;3.38;;;;;;;26.01;81.87;101595.22;5226580;28;20167;-64
2022/07/29 10:43:44;;;;;;;3.95;2.63;;;;;;;26.02;82.19;101588.53;5224549;28;20503;-65
2022/07/29 10:46:15;;;;;;;3.05;2.85;;;;;;;26.07;80.52;101590.28;5224491;28;20107;-63
2022/07/29 10:49:05;;;;;;;4.03;3.10;;;;;;;26.35;80.14;101588.50;5223416;28;20162;-63
2022/07/29 10:51:59;;;;;;;8.15;3.47;;;;;;;26.52;80.56;101590.25;5223799;28;20024;-63
2022/07/29 10:54:33;;;;;;;4.50;2.58;;;;;;;26.59;79.69;101584.94;5224634;28;20040;-64
2022/07/29 10:57:16;;;;;;;2.88;2.78;;;;;;;26.71;80.93;101582.16;5225457;28;20135;-64
2022/07/29 11:00:10;;;;;;;2.42;2.22;;;;;;;26.66;79.41;101574.09;5235684;22;20041;-68
2022/07/29 11:02:43;;;;;;;3.50;3.20;;;;;;;26.53;79.40;101587.16;5197235;28;20559;-67
2022/07/29 11:05:16;;;;;;;3.05;2.95;;;;;;;26.32;79.50;101577.31;5202933;28;20029;-66
2022/07/29 11:08:19;;;;;;;3.90;3.15;;;;;;;26.40;79.80;101590.25;5204995;28;20032;-68
2022/07/29 11:10:52;;;;;;;5.47;4.18;;;;;;;26.42;79.32;101590.72;5205014;28;20060;-68
2022/07/29 11:13:45;;;;;;;4.10;2.70;;;;;;;26.42;78.88;101580.44;5203617;28;20111;-67
2022/07/29 11:16:18;;;;;;;2.80;2.60;;;;;;;26.60;77.69;101572.69;5204017;28;20044;-67
2022/07/29 11:19:10;;;;;;;6.65;5.00;;;;;;;26.76;79.61;101584.69;5205480;28;20086;-66
2022/07/29 11:21:43;;;;;;;5.75;3.40;;;;;;;26.64;80.39;101575.59;5205105;28;20025;-66
2022/07/29 11:24:18;;;;;;;3.50;3.30;;;;;;;26.69;77.62;101581.69;5204725;28;20432;-67
2022/07/29 11:27:11;;;;;;;5.05;3.03;;;;;;;26.46;77.62;101591.63;5205354;28;20507;-66
2022/07/29 11:29:56;;;;;;;3.30;3.00;;;;;;;26.12;77.51;101592.84;5198633;28;20040;-67
2022/07/29 11:32:40;;;;;;;3.22;3.08;;;;;;;26.48;78.14;101589.34;5205072;28;20104;-66
2022/07/29 11:35:10;;;;;;;3.67;3.40;;;;;;;26.83;77.66;101579.38;5204721;28;20116;-66
2022/07/29 11:37:41;;;;;;;4.68;3.53;;;;;;;27.11;75.78;101585.03;5205244;28;20460;-66
2022/07/29 11:40:13;;;;;;;9.18;3.17;;;;;;;27.38;73.96;101575.09;5205248;28;20041;-67
2022/07/29 11:42:45;;;;;;;2.83;2.65;;;;;;;27.21;73.69;101578.16;5203335;28;20091;-66
2022/07/29 11:45:21;;;;;;;2.92;2.83;;;;;;;27.53;75.89;101584.63;5203221;28;20040;-66
2022/07/29 11:47:57;;;;;;;5.00;3.40;;;;;;;27.82;72.09;101580.69;5204646;28;20040;-66
2022/07/29 11:50:37;;;;;;;2.92;2.72;;;;;;;28.05;71.55;101584.47;5204465;28;20132;-66